sensor_id;sensor_type;location;lat;lon;timestamp;P1;durP1;ratioP1;P2;durP2;ratioP2
48635;SDS011;34429;52.332;5.614;2022-08-01T00:01:51;5.20;;;2.67;;
48635;SDS011;34429;52.332;5.614;2022-08-01T00:04:20;4.68;;;2.80;;
48635;SDS011;34429;52.332;5.614;2022-08-01T00:06:51;5.82;;;2.80;;
48635;SDS011;34429;52.332;5.614;2022-08-01T00:09:19;4.65;;;2.83;;
48635;SDS011;34429;52.332;5.614;2022-08-01T00:11:47;6.30;;;3.05;;
48635;SDS011;34429;52.332;5.614;2022-08-01T00:14:16;5.50;;;2.70;;
48635;SDS011;34429;52.332;5.614;2022-08-01T00:16:44;5.90;;;3.45;;
48635;SDS011;34429;52.332;5.614;2022-08-01T00:19:12;7.25;;;2.85;;
48635;SDS011;34429;52.332;5.614;2022-08-01T00:21:40;5.05;;;3.10;;
48635;SDS011;34429;52.332;5.614;2022-08-01T00:24:11;5.20;;;3.03;;
48635;SDS011;34429;52.332;5.614;2022-08-01T00:26:40;5.68;;;3.00;;
48635;SDS011;34429;52.332;5.614;2022-08-01T00:29:08;5.15;;;3.22;;
48635;SDS011;34429;52.332;5.614;2022-08-01T00:31:36;6.10;;;3.17;;
48635;SDS011;34429;52.332;5.614;2022-08-01T00:34:05;4.75;;;2.90;;
48635;SDS011;34429;52.332;5.614;2022-08-01T00:36:33;5.57;;;3.47;;
48635;SDS011;34429;52.332;5.614;2022-08-01T00:39:01;9.07;;;3.72;;
48635;SDS011;34429;52.332;5.614;2022-08-01T00:41:32;7.97;;;3.92;;
48635;SDS011;34429;52.332;5.614;2022-08-01T00:44:02;5.03;;;3.00;;
48635;SDS011;34429;52.332;5.614;2022-08-01T00:46:33;5.40;;;3.28;;
48635;SDS011;34429;52.332;5.614;2022-08-01T00:49:02;4.60;;;2.95;;
48635;SDS011;34429;52.332;5.614;2022-08-01T00:51:30;3.30;;;2.30;;
48635;SDS011;34429;52.332;5.614;2022-08-01T00:53:59;3.88;;;2.22;;
48635;SDS011;34429;52.332;5.614;2022-08-01T00:56:28;2.60;;;1.90;;
48635;SDS011;34429;52.332;5.614;2022-08-01T00:58:58;2.72;;;1.88;;
48635;SDS011;34429;52.332;5.614;2022-08-01T01:01:27;3.28;;;2.03;;
48635;SDS011;34429;52.332;5.614;2022-08-01T01:03:55;2.38;;;1.75;;
48635;SDS011;34429;52.332;5.614;2022-08-01T01:06:25;2.87;;;1.70;;
48635;SDS011;34429;52.332;5.614;2022-08-01T01:09:02;3.80;;;1.85;;
48635;SDS011;34429;52.332;5.614;2022-08-01T01:11:47;5.13;;;2.00;;
48635;SDS011;34429;52.332;5.614;2022-08-01T01:14:30;3.42;;;1.73;;
48635;SDS011;34429;52.332;5.614;2022-08-01T01:17:03;2.42;;;1.63;;
48635;SDS011;34429;52.332;5.614;2022-08-01T01:19:35;3.45;;;1.83;;
48635;SDS011;34429;52.332;5.614;2022-08-01T01:22:19;3.25;;;2.25;;
48635;SDS011;34429;52.332;5.614;2022-08-01T01:27:51;5.60;;;2.72;;
48635;SDS011;34429;52.332;5.614;2022-08-01T01:30:32;4.18;;;2.50;;
48635;SDS011;34429;52.332;5.614;2022-08-01T01:33:02;5.20;;;2.67;;
48635;SDS011;34429;52.332;5.614;2022-08-01T01:35:35;5.47;;;2.88;;
48635;SDS011;34429;52.332;5.614;2022-08-01T01:38:10;5.72;;;3.00;;
48635;SDS011;34429;52.332;5.614;2022-08-01T01:40:45;7.03;;;3.03;;
48635;SDS011;34429;52.332;5.614;2022-08-01T01:43:14;4.75;;;3.00;;
48635;SDS011;34429;52.332;5.614;2022-08-01T01:45:48;5.97;;;2.90;;
48635;SDS011;34429;52.332;5.614;2022-08-01T01:48:19;5.43;;;2.55;;
48635;SDS011;34429;52.332;5.614;2022-08-01T01:50:51;7.50;;;3.55;;
48635;SDS011;34429;52.332;5.614;2022-08-01T01:53:21;5.25;;;2.95;;
48635;SDS011;34429;52.332;5.614;2022-08-01T01:55:52;6.53;;;3.08;;
48635;SDS011;34429;52.332;5.614;2022-08-01T01:58:21;5.97;;;2.70;;
48635;SDS011;34429;52.332;5.614;2022-08-01T02:00:55;5.10;;;3.03;;
48635;SDS011;34429;52.332;5.614;2022-08-01T02:03:26;4.85;;;2.83;;
48635;SDS011;34429;52.332;5.614;2022-08-01T02:05:56;6.40;;;3.25;;
48635;SDS011;34429;52.332;5.614;2022-08-01T02:08:27;4.65;;;2.63;;
48635;SDS011;34429;52.332;5.614;2022-08-01T02:10:57;3.30;;;2.20;;
48635;SDS011;34429;52.332;5.614;2022-08-01T02:13:41;4.20;;;2.40;;
48635;SDS011;34429;52.332;5.614;2022-08-01T02:16:12;4.57;;;2.42;;
48635;SDS011;34429;52.332;5.614;2022-08-01T02:18:43;5.47;;;2.45;;
48635;SDS011;34429;52.332;5.614;2022-08-01T02:21:12;3.97;;;2.42;;
48635;SDS011;34429;52.332;5.614;2022-08-01T02:23:44;5.80;;;2.58;;
48635;SDS011;34429;52.332;5.614;2022-08-01T02:26:13;3.35;;;2.30;;
48635;SDS011;34429;52.332;5.614;2022-08-01T02:28:45;5.13;;;2.92;;
48635;SDS011;34429;52.332;5.614;2022-08-01T02:31:20;9.60;;;2.80;;
48635;SDS011;34429;52.332;5.614;2022-08-01T02:33:51;4.50;;;2.90;;
48635;SDS011;34429;52.332;5.614;2022-08-01T02:36:25;5.05;;;3.33;;
48635;SDS011;34429;52.332;5.614;2022-08-01T02:38:56;4.78;;;3.08;;
48635;SDS011;34429;52.332;5.614;2022-08-01T02:41:26;5.65;;;3.40;;
48635;SDS011;34429;52.332;5.614;2022-08-01T02:43:58;5.80;;;3.25;;
48635;SDS011;34429;52.332;5.614;2022-08-01T02:46:33;4.70;;;3.20;;
48635;SDS011;34429;52.332;5.614;2022-08-01T02:49:05;4.88;;;2.78;;
48635;SDS011;34429;52.332;5.614;2022-08-01T02:51:36;6.85;;;3.13;;
48635;SDS011;34429;52.332;5.614;2022-08-01T02:54:08;4.57;;;3.20;;
48635;SDS011;34429;52.332;5.614;2022-08-01T02:56:39;8.27;;;3.10;;
48635;SDS011;34429;52.332;5.614;2022-08-01T02:59:09;4.43;;;2.85;;
48635;SDS011;34429;52.332;5.614;2022-08-01T03:01:43;6.03;;;3.58;;
48635;SDS011;34429;52.332;5.614;2022-08-01T03:04:13;4.80;;;3.30;;
48635;SDS011;34429;52.332;5.614;2022-08-01T03:06:45;7.53;;;3.90;;
48635;SDS011;34429;52.332;5.614;2022-08-01T03:09:14;5.78;;;4.03;;
48635;SDS011;34429;52.332;5.614;2022-08-01T03:11:45;5.38;;;3.85;;
48635;SDS011;34429;52.332;5.614;2022-08-01T03:14:16;4.88;;;3.47;;
48635;SDS011;34429;52.332;5.614;2022-08-01T03:16:50;6.22;;;3.47;;
48635;SDS011;34429;52.332;5.614;2022-08-01T03:19:20;6.25;;;4.00;;
48635;SDS011;34429;52.332;5.614;2022-08-01T03:21:52;6.65;;;4.03;;
48635;SDS011;34429;52.332;5.614;2022-08-01T03:24:21;5.80;;;3.78;;
48635;SDS011;34429;52.332;5.614;2022-08-01T03:26:50;7.03;;;3.50;;
48635;SDS011;34429;52.332;5.614;2022-08-01T03:29:21;8.10;;;3.70;;
48635;SDS011;34429;52.332;5.614;2022-08-01T03:31:55;4.90;;;3.13;;
48635;SDS011;34429;52.332;5.614;2022-08-01T03:34:25;6.70;;;4.00;;
48635;SDS011;34429;52.332;5.614;2022-08-01T03:36:55;6.57;;;3.50;;
48635;SDS011;34429;52.332;5.614;2022-08-01T03:39:28;6.30;;;3.47;;
48635;SDS011;34429;52.332;5.614;2022-08-01T03:42:01;5.47;;;3.45;;
48635;SDS011;34429;52.332;5.614;2022-08-01T03:44:33;8.60;;;3.60;;
48635;SDS011;34429;52.332;5.614;2022-08-01T03:47:08;4.57;;;3.50;;
48635;SDS011;34429;52.332;5.614;2022-08-01T03:49:40;4.68;;;3.13;;
48635;SDS011;34429;52.332;5.614;2022-08-01T03:52:12;3.40;;;1.90;;
48635;SDS011;34429;52.332;5.614;2022-08-01T03:54:43;2.45;;;1.55;;
48635;SDS011;34429;52.332;5.614;2022-08-01T03:57:16;2.45;;;1.80;;
48635;SDS011;34429;52.332;5.614;2022-08-01T03:59:46;2.65;;;1.60;;
48635;SDS011;34429;52.332;5.614;2022-08-01T04:02:18;2.00;;;1.60;;
48635;SDS011;34429;52.332;5.614;2022-08-01T04:04:47;3.22;;;2.00;;
48635;SDS011;34429;52.332;5.614;2022-08-01T04:07:22;4.03;;;2.08;;
48635;SDS011;34429;52.332;5.614;2022-08-01T04:09:51;2.38;;;1.90;;
48635;SDS011;34429;52.332;5.614;2022-08-01T04:12:20;6.90;;;1.90;;
48635;SDS011;34429;52.332;5.614;2022-08-01T04:14:48;3.45;;;1.83;;
48635;SDS011;34429;52.332;5.614;2022-08-01T04:17:20;2.90;;;1.75;;
48635;SDS011;34429;52.332;5.614;2022-08-01T04:19:48;2.40;;;1.85;;
48635;SDS011;34429;52.332;5.614;2022-08-01T04:22:17;3.45;;;2.05;;
48635;SDS011;34429;52.332;5.614;2022-08-01T04:24:46;2.97;;;2.13;;
48635;SDS011;34429;52.332;5.614;2022-08-01T04:27:19;2.97;;;2.20;;
48635;SDS011;34429;52.332;5.614;2022-08-01T04:29:51;5.75;;;2.53;;
48635;SDS011;34429;52.332;5.614;2022-08-01T04:32:24;4.53;;;2.47;;
48635;SDS011;34429;52.332;5.614;2022-08-01T04:34:54;3.70;;;2.17;;
48635;SDS011;34429;52.332;5.614;2022-08-01T04:37:25;4.25;;;2.10;;
48635;SDS011;34429;52.332;5.614;2022-08-01T04:39:55;4.60;;;2.08;;
48635;SDS011;34429;52.332;5.614;2022-08-01T04:42:24;3.53;;;2.33;;
48635;SDS011;34429;52.332;5.614;2022-08-01T04:44:53;3.28;;;1.90;;
48635;SDS011;34429;52.332;5.614;2022-08-01T04:47:24;3.92;;;2.05;;
48635;SDS011;34429;52.332;5.614;2022-08-01T04:49:56;2.33;;;2.03;;
48635;SDS011;34429;52.332;5.614;2022-08-01T04:52:32;4.55;;;2.10;;
48635;SDS011;34429;52.332;5.614;2022-08-01T04:55:01;3.90;;;2.13;;
48635;SDS011;34429;52.332;5.614;2022-08-01T04:57:31;3.03;;;1.95;;
48635;SDS011;34429;52.332;5.614;2022-08-01T04:59:59;5.30;;;2.30;;
48635;SDS011;34429;52.332;5.614;2022-08-01T05:02:30;2.83;;;2.20;;
48635;SDS011;34429;52.332;5.614;2022-08-01T05:04:59;3.17;;;2.13;;
48635;SDS011;34429;52.332;5.614;2022-08-01T05:07:27;3.47;;;2.58;;
48635;SDS011;34429;52.332;5.614;2022-08-01T05:09:55;2.83;;;2.30;;
48635;SDS011;34429;52.332;5.614;2022-08-01T05:12:23;3.77;;;2.40;;
48635;SDS011;34429;52.332;5.614;2022-08-01T05:14:52;4.20;;;2.80;;
48635;SDS011;34429;52.332;5.614;2022-08-01T05:17:20;3.83;;;2.08;;
48635;SDS011;34429;52.332;5.614;2022-08-01T05:19:51;5.77;;;2.40;;
48635;SDS011;34429;52.332;5.614;2022-08-01T05:22:20;5.55;;;2.40;;
48635;SDS011;34429;52.332;5.614;2022-08-01T05:24:50;5.85;;;2.20;;
48635;SDS011;34429;52.332;5.614;2022-08-01T05:27:20;5.55;;;2.92;;
48635;SDS011;34429;52.332;5.614;2022-08-01T05:29:48;4.18;;;2.30;;
48635;SDS011;34429;52.332;5.614;2022-08-01T05:32:16;7.15;;;3.15;;
48635;SDS011;34429;52.332;5.614;2022-08-01T05:34:45;4.28;;;2.83;;
48635;SDS011;34429;52.332;5.614;2022-08-01T05:37:15;4.97;;;3.17;;
48635;SDS011;34429;52.332;5.614;2022-08-01T05:39:44;4.30;;;2.83;;
48635;SDS011;34429;52.332;5.614;2022-08-01T05:42:12;5.33;;;2.40;;
48635;SDS011;34429;52.332;5.614;2022-08-01T05:44:41;6.50;;;2.40;;
48635;SDS011;34429;52.332;5.614;2022-08-01T05:47:09;3.67;;;2.70;;
48635;SDS011;34429;52.332;5.614;2022-08-01T05:49:37;5.53;;;3.20;;
48635;SDS011;34429;52.332;5.614;2022-08-01T05:52:05;8.07;;;2.72;;
48635;SDS011;34429;52.332;5.614;2022-08-01T05:54:37;4.50;;;2.85;;
48635;SDS011;34429;52.332;5.614;2022-08-01T05:57:05;4.80;;;2.47;;
48635;SDS011;34429;52.332;5.614;2022-08-01T05:59:34;6.18;;;2.75;;
48635;SDS011;34429;52.332;5.614;2022-08-01T06:02:02;6.00;;;2.67;;
48635;SDS011;34429;52.332;5.614;2022-08-01T06:04:30;3.88;;;2.38;;
48635;SDS011;34429;52.332;5.614;2022-08-01T06:06:58;6.57;;;2.77;;
48635;SDS011;34429;52.332;5.614;2022-08-01T06:09:27;4.88;;;2.63;;
48635;SDS011;34429;52.332;5.614;2022-08-01T06:11:58;7.85;;;3.05;;
48635;SDS011;34429;52.332;5.614;2022-08-01T06:14:26;4.85;;;2.30;;
48635;SDS011;34429;52.332;5.614;2022-08-01T06:16:54;7.65;;;3.13;;
48635;SDS011;34429;52.332;5.614;2022-08-01T06:19:23;6.45;;;3.15;;
48635;SDS011;34429;52.332;5.614;2022-08-01T06:21:51;4.80;;;2.28;;
48635;SDS011;34429;52.332;5.614;2022-08-01T06:24:20;5.05;;;2.70;;
48635;SDS011;34429;52.332;5.614;2022-08-01T06:26:48;7.88;;;2.72;;
48635;SDS011;34429;52.332;5.614;2022-08-01T06:29:19;11.27;;;4.03;;
48635;SDS011;34429;52.332;5.614;2022-08-01T06:31:48;8.27;;;2.83;;
48635;SDS011;34429;52.332;5.614;2022-08-01T06:34:16;7.30;;;2.77;;
48635;SDS011;34429;52.332;5.614;2022-08-01T06:36:44;8.25;;;3.15;;
48635;SDS011;34429;52.332;5.614;2022-08-01T06:39:12;6.80;;;3.08;;
48635;SDS011;34429;52.332;5.614;2022-08-01T06:41:41;6.40;;;3.10;;
48635;SDS011;34429;52.332;5.614;2022-08-01T06:44:11;10.55;;;2.92;;
48635;SDS011;34429;52.332;5.614;2022-08-01T06:46:42;9.23;;;3.30;;
48635;SDS011;34429;52.332;5.614;2022-08-01T06:49:10;5.63;;;2.42;;
48635;SDS011;34429;52.332;5.614;2022-08-01T06:51:38;7.30;;;3.00;;
48635;SDS011;34429;52.332;5.614;2022-08-01T06:54:07;8.97;;;2.87;;
48635;SDS011;34429;52.332;5.614;2022-08-01T06:56:35;7.63;;;3.10;;
48635;SDS011;34429;52.332;5.614;2022-08-01T06:59:03;5.30;;;2.77;;
48635;SDS011;34429;52.332;5.614;2022-08-01T07:01:31;7.68;;;3.35;;
48635;SDS011;34429;52.332;5.614;2022-08-01T07:04:02;8.35;;;3.08;;
48635;SDS011;34429;52.332;5.614;2022-08-01T07:06:31;9.20;;;2.75;;
48635;SDS011;34429;52.332;5.614;2022-08-01T07:08:59;7.18;;;2.75;;
48635;SDS011;34429;52.332;5.614;2022-08-01T07:11:28;7.05;;;2.78;;
48635;SDS011;34429;52.332;5.614;2022-08-01T07:13:57;10.38;;;2.92;;
48635;SDS011;34429;52.332;5.614;2022-08-01T07:16:26;9.05;;;2.80;;
48635;SDS011;34429;52.332;5.614;2022-08-01T07:18:54;7.38;;;2.78;;
48635;SDS011;34429;52.332;5.614;2022-08-01T07:21:25;6.67;;;2.70;;
48635;SDS011;34429;52.332;5.614;2022-08-01T07:23:53;6.32;;;2.40;;
48635;SDS011;34429;52.332;5.614;2022-08-01T07:26:21;14.00;;;3.17;;
48635;SDS011;34429;52.332;5.614;2022-08-01T07:28:49;7.60;;;2.43;;
48635;SDS011;34429;52.332;5.614;2022-08-01T07:31:18;9.37;;;2.60;;
48635;SDS011;34429;52.332;5.614;2022-08-01T07:33:46;10.75;;;3.10;;
48635;SDS011;34429;52.332;5.614;2022-08-01T07:36:15;14.03;;;2.90;;
48635;SDS011;34429;52.332;5.614;2022-08-01T07:38:46;9.93;;;2.58;;
48635;SDS011;34429;52.332;5.614;2022-08-01T07:41:15;11.68;;;2.90;;
48635;SDS011;34429;52.332;5.614;2022-08-01T07:43:43;12.02;;;3.65;;
48635;SDS011;34429;52.332;5.614;2022-08-01T07:48:40;10.15;;;2.50;;
48635;SDS011;34429;52.332;5.614;2022-08-01T07:51:09;9.45;;;2.40;;
48635;SDS011;34429;52.332;5.614;2022-08-01T07:53:37;9.63;;;2.38;;
48635;SDS011;34429;52.332;5.614;2022-08-01T07:56:08;12.35;;;2.55;;
48635;SDS011;34429;52.332;5.614;2022-08-01T07:58:37;9.63;;;2.47;;
48635;SDS011;34429;52.332;5.614;2022-08-01T08:01:05;14.23;;;2.88;;
48635;SDS011;34429;52.332;5.614;2022-08-01T08:03:33;6.35;;;1.80;;
48635;SDS011;34429;52.332;5.614;2022-08-01T08:06:02;5.70;;;2.08;;
48635;SDS011;34429;52.332;5.614;2022-08-01T08:08:30;10.75;;;2.17;;
48635;SDS011;34429;52.332;5.614;2022-08-01T08:10:59;7.47;;;2.03;;
48635;SDS011;34429;52.332;5.614;2022-08-01T08:13:30;8.70;;;2.10;;
48635;SDS011;34429;52.332;5.614;2022-08-01T08:15:59;8.68;;;1.83;;
48635;SDS011;34429;52.332;5.614;2022-08-01T08:18:27;7.68;;;2.10;;
48635;SDS011;34429;52.332;5.614;2022-08-01T08:20:55;8.68;;;1.70;;
48635;SDS011;34429;52.332;5.614;2022-08-01T08:23:23;5.65;;;2.15;;
48635;SDS011;34429;52.332;5.614;2022-08-01T08:26:04;4.72;;;2.03;;
48635;SDS011;34429;52.332;5.614;2022-08-01T08:28:35;8.55;;;2.05;;
48635;SDS011;34429;52.332;5.614;2022-08-01T08:31:03;4.72;;;1.67;;
48635;SDS011;34429;52.332;5.614;2022-08-01T08:33:32;9.48;;;2.08;;
48635;SDS011;34429;52.332;5.614;2022-08-01T08:36:00;9.85;;;2.20;;
48635;SDS011;34429;52.332;5.614;2022-08-01T08:38:28;6.68;;;1.60;;
48635;SDS011;34429;52.332;5.614;2022-08-01T08:40:57;7.80;;;2.22;;
48635;SDS011;34429;52.332;5.614;2022-08-01T08:43:25;8.65;;;2.45;;
48635;SDS011;34429;52.332;5.614;2022-08-01T08:45:56;7.80;;;1.63;;
48635;SDS011;34429;52.332;5.614;2022-08-01T08:48:25;6.85;;;1.77;;
48635;SDS011;34429;52.332;5.614;2022-08-01T08:50:53;7.18;;;1.70;;
48635;SDS011;34429;52.332;5.614;2022-08-01T08:53:23;7.47;;;1.67;;
48635;SDS011;34429;52.332;5.614;2022-08-01T08:55:52;4.78;;;1.40;;
48635;SDS011;34429;52.332;5.614;2022-08-01T08:58:22;6.55;;;1.80;;
48635;SDS011;34429;52.332;5.614;2022-08-01T09:00:56;7.18;;;1.80;;
48635;SDS011;34429;52.332;5.614;2022-08-01T09:03:29;9.40;;;2.08;;
48635;SDS011;34429;52.332;5.614;2022-08-01T09:05:57;6.45;;;1.83;;
48635;SDS011;34429;52.332;5.614;2022-08-01T09:08:25;3.22;;;1.30;;
48635;SDS011;34429;52.332;5.614;2022-08-01T09:10:54;5.90;;;1.50;;
48635;SDS011;34429;52.332;5.614;2022-08-01T09:13:22;5.93;;;1.50;;
48635;SDS011;34429;52.332;5.614;2022-08-01T09:15:53;4.93;;;1.75;;
48635;SDS011;34429;52.332;5.614;2022-08-01T09:18:28;5.53;;;1.70;;
48635;SDS011;34429;52.332;5.614;2022-08-01T09:21:12;9.98;;;2.42;;
48635;SDS011;34429;52.332;5.614;2022-08-01T09:23:45;8.40;;;1.90;;
48635;SDS011;34429;52.332;5.614;2022-08-01T09:26:15;8.02;;;1.88;;
48635;SDS011;34429;52.332;5.614;2022-08-01T09:28:45;6.28;;;1.60;;
48635;SDS011;34429;52.332;5.614;2022-08-01T09:31:17;8.85;;;2.17;;
48635;SDS011;34429;52.332;5.614;2022-08-01T09:33:47;4.80;;;1.80;;
48635;SDS011;34429;52.332;5.614;2022-08-01T09:36:17;6.32;;;1.58;;
48635;SDS011;34429;52.332;5.614;2022-08-01T09:38:46;9.93;;;2.15;;
48635;SDS011;34429;52.332;5.614;2022-08-01T09:41:14;6.53;;;1.63;;
48635;SDS011;34429;52.332;5.614;2022-08-01T09:43:47;5.07;;;1.80;;
48635;SDS011;34429;52.332;5.614;2022-08-01T09:46:20;6.15;;;1.90;;
48635;SDS011;34429;52.332;5.614;2022-08-01T09:48:55;5.72;;;1.98;;
48635;SDS011;34429;52.332;5.614;2022-08-01T09:51:28;11.27;;;2.17;;
48635;SDS011;34429;52.332;5.614;2022-08-01T09:53:58;4.82;;;1.60;;
48635;SDS011;34429;52.332;5.614;2022-08-01T09:56:26;5.78;;;1.98;;
48635;SDS011;34429;52.332;5.614;2022-08-01T09:59:05;9.55;;;1.88;;
48635;SDS011;34429;52.332;5.614;2022-08-01T10:01:46;12.23;;;2.10;;
48635;SDS011;34429;52.332;5.614;2022-08-01T10:04:16;5.78;;;1.90;;
48635;SDS011;34429;52.332;5.614;2022-08-01T10:06:48;7.18;;;1.92;;
48635;SDS011;34429;52.332;5.614;2022-08-01T10:09:26;10.00;;;2.30;;
48635;SDS011;34429;52.332;5.614;2022-08-01T10:11:55;7.53;;;1.98;;
48635;SDS011;34429;52.332;5.614;2022-08-01T10:14:24;9.23;;;2.20;;
48635;SDS011;34429;52.332;5.614;2022-08-01T10:16:57;6.80;;;1.65;;
48635;SDS011;34429;52.332;5.614;2022-08-01T10:19:27;7.25;;;2.35;;
48635;SDS011;34429;52.332;5.614;2022-08-01T10:21:57;4.13;;;1.55;;
48635;SDS011;34429;52.332;5.614;2022-08-01T10:24:26;5.30;;;1.70;;
48635;SDS011;34429;52.332;5.614;2022-08-01T10:26:57;6.53;;;1.90;;
48635;SDS011;34429;52.332;5.614;2022-08-01T10:29:31;4.55;;;1.40;;
48635;SDS011;34429;52.332;5.614;2022-08-01T10:32:06;5.57;;;1.50;;
48635;SDS011;34429;52.332;5.614;2022-08-01T10:34:35;10.73;;;2.22;;
48635;SDS011;34429;52.332;5.614;2022-08-01T10:37:04;4.47;;;1.95;;
48635;SDS011;34429;52.332;5.614;2022-08-01T10:39:33;6.03;;;1.60;;
48635;SDS011;34429;52.332;5.614;2022-08-01T10:42:03;7.57;;;1.90;;
48635;SDS011;34429;52.332;5.614;2022-08-01T10:44:33;6.85;;;1.83;;
48635;SDS011;34429;52.332;5.614;2022-08-01T10:47:04;6.55;;;1.30;;
48635;SDS011;34429;52.332;5.614;2022-08-01T10:49:40;6.18;;;1.40;;
48635;SDS011;34429;52.332;5.614;2022-08-01T10:52:14;4.25;;;1.38;;
48635;SDS011;34429;52.332;5.614;2022-08-01T10:54:43;5.68;;;1.52;;
48635;SDS011;34429;52.332;5.614;2022-08-01T10:57:13;5.55;;;1.38;;
48635;SDS011;34429;52.332;5.614;2022-08-01T10:59:49;6.47;;;1.30;;
48635;SDS011;34429;52.332;5.614;2022-08-01T11:02:28;6.00;;;1.60;;
48635;SDS011;34429;52.332;5.614;2022-08-01T11:05:00;4.03;;;1.42;;
48635;SDS011;34429;52.332;5.614;2022-08-01T11:07:42;3.65;;;1.30;;
48635;SDS011;34429;52.332;5.614;2022-08-01T11:10:16;1.85;;;1.30;;
48635;SDS011;34429;52.332;5.614;2022-08-01T11:12:52;3.15;;;1.40;;
48635;SDS011;34429;52.332;5.614;2022-08-01T11:15:21;5.22;;;1.42;;
48635;SDS011;34429;52.332;5.614;2022-08-01T11:17:58;6.30;;;1.52;;
48635;SDS011;34429;52.332;5.614;2022-08-01T11:20:28;3.58;;;1.23;;
48635;SDS011;34429;52.332;5.614;2022-08-01T11:26:07;4.55;;;1.50;;
48635;SDS011;34429;52.332;5.614;2022-08-01T11:28:37;4.80;;;1.25;;
48635;SDS011;34429;52.332;5.614;2022-08-01T11:33:58;11.93;;;2.22;;
48635;SDS011;34429;52.332;5.614;2022-08-01T11:36:28;4.10;;;1.63;;
48635;SDS011;34429;52.332;5.614;2022-08-01T11:41:41;5.72;;;1.70;;
48635;SDS011;34429;52.332;5.614;2022-08-01T11:44:11;5.18;;;1.50;;
48635;SDS011;34429;52.332;5.614;2022-08-01T11:46:48;3.83;;;1.20;;
48635;SDS011;34429;52.332;5.614;2022-08-01T11:49:31;5.20;;;1.42;;
48635;SDS011;34429;52.332;5.614;2022-08-01T11:52:02;3.42;;;1.17;;
48635;SDS011;34429;52.332;5.614;2022-08-01T11:54:33;3.85;;;1.20;;
48635;SDS011;34429;52.332;5.614;2022-08-01T11:57:03;1.75;;;1.10;;
48635;SDS011;34429;52.332;5.614;2022-08-01T11:59:36;5.85;;;1.15;;
48635;SDS011;34429;52.332;5.614;2022-08-01T12:02:16;11.68;;;1.30;;
48635;SDS011;34429;52.332;5.614;2022-08-01T12:04:52;5.15;;;1.40;;
48635;SDS011;34429;52.332;5.614;2022-08-01T12:07:23;3.38;;;1.17;;
48635;SDS011;34429;52.332;5.614;2022-08-01T12:09:59;4.25;;;1.13;;
48635;SDS011;34429;52.332;5.614;2022-08-01T12:12:29;5.65;;;1.30;;
48635;SDS011;34429;52.332;5.614;2022-08-01T12:14:59;2.75;;;1.20;;
48635;SDS011;34429;52.332;5.614;2022-08-01T12:17:29;3.85;;;0.85;;
48635;SDS011;34429;52.332;5.614;2022-08-01T12:20:02;3.25;;;1.02;;
48635;SDS011;34429;52.332;5.614;2022-08-01T12:22:32;5.75;;;1.42;;
48635;SDS011;34429;52.332;5.614;2022-08-01T12:25:04;6.70;;;1.42;;
48635;SDS011;34429;52.332;5.614;2022-08-01T12:27:35;4.18;;;1.38;;
48635;SDS011;34429;52.332;5.614;2022-08-01T12:30:05;3.92;;;1.23;;
48635;SDS011;34429;52.332;5.614;2022-08-01T12:32:36;3.60;;;1.10;;
48635;SDS011;34429;52.332;5.614;2022-08-01T12:35:08;5.53;;;1.20;;
48635;SDS011;34429;52.332;5.614;2022-08-01T12:37:41;2.00;;;0.90;;
48635;SDS011;34429;52.332;5.614;2022-08-01T12:40:12;4.07;;;1.23;;
48635;SDS011;34429;52.332;5.614;2022-08-01T12:42:43;2.55;;;1.08;;
48635;SDS011;34429;52.332;5.614;2022-08-01T12:45:13;2.40;;;1.00;;
48635;SDS011;34429;52.332;5.614;2022-08-01T12:47:43;2.42;;;1.00;;
48635;SDS011;34429;52.332;5.614;2022-08-01T12:50:17;4.25;;;1.60;;
48635;SDS011;34429;52.332;5.614;2022-08-01T12:52:47;1.80;;;1.00;;
48635;SDS011;34429;52.332;5.614;2022-08-01T12:55:17;4.47;;;1.08;;
48635;SDS011;34429;52.332;5.614;2022-08-01T12:57:46;3.00;;;1.05;;
48635;SDS011;34429;52.332;5.614;2022-08-01T13:00:21;4.45;;;1.25;;
48635;SDS011;34429;52.332;5.614;2022-08-01T13:03:01;3.70;;;1.10;;
48635;SDS011;34429;52.332;5.614;2022-08-01T13:05:42;4.28;;;1.30;;
48635;SDS011;34429;52.332;5.614;2022-08-01T13:08:17;3.42;;;1.10;;
48635;SDS011;34429;52.332;5.614;2022-08-01T13:10:47;4.85;;;1.10;;
48635;SDS011;34429;52.332;5.614;2022-08-01T13:13:17;2.80;;;1.20;;
48635;SDS011;34429;52.332;5.614;2022-08-01T13:15:46;1.55;;;0.95;;
48635;SDS011;34429;52.332;5.614;2022-08-01T13:21:09;2.97;;;1.17;;
48635;SDS011;34429;52.332;5.614;2022-08-01T13:23:41;1.85;;;0.90;;
48635;SDS011;34429;52.332;5.614;2022-08-01T13:26:10;3.05;;;1.10;;
48635;SDS011;34429;52.332;5.614;2022-08-01T13:28:38;1.60;;;0.80;;
48635;SDS011;34429;52.332;5.614;2022-08-01T13:31:07;2.63;;;1.08;;
48635;SDS011;34429;52.332;5.614;2022-08-01T13:33:42;5.32;;;1.00;;
48635;SDS011;34429;52.332;5.614;2022-08-01T13:36:15;2.55;;;1.00;;
48635;SDS011;34429;52.332;5.614;2022-08-01T13:38:43;3.40;;;0.90;;
48635;SDS011;34429;52.332;5.614;2022-08-01T13:41:24;4.60;;;1.20;;
48635;SDS011;34429;52.332;5.614;2022-08-01T13:43:52;2.45;;;0.90;;
48635;SDS011;34429;52.332;5.614;2022-08-01T13:46:20;4.45;;;0.90;;
48635;SDS011;34429;52.332;5.614;2022-08-01T13:48:49;2.78;;;1.00;;
48635;SDS011;34429;52.332;5.614;2022-08-01T13:51:20;7.63;;;2.30;;
48635;SDS011;34429;52.332;5.614;2022-08-01T13:53:48;1.30;;;0.82;;
48635;SDS011;34429;52.332;5.614;2022-08-01T13:56:16;1.55;;;0.80;;
48635;SDS011;34429;52.332;5.614;2022-08-01T13:58:45;3.22;;;0.80;;
48635;SDS011;34429;52.332;5.614;2022-08-01T14:03:41;1.52;;;0.73;;
48635;SDS011;34429;52.332;5.614;2022-08-01T14:06:11;4.55;;;1.30;;
48635;SDS011;34429;52.332;5.614;2022-08-01T14:08:43;3.38;;;1.05;;
48635;SDS011;34429;52.332;5.614;2022-08-01T14:11:12;3.05;;;1.20;;
48635;SDS011;34429;52.332;5.614;2022-08-01T14:13:40;3.17;;;1.10;;
48635;SDS011;34429;52.332;5.614;2022-08-01T14:16:09;3.10;;;1.13;;
48635;SDS011;34429;52.332;5.614;2022-08-01T14:18:37;3.15;;;1.17;;
48635;SDS011;34429;52.332;5.614;2022-08-01T14:21:06;3.05;;;1.00;;
48635;SDS011;34429;52.332;5.614;2022-08-01T14:23:34;2.90;;;1.20;;
48635;SDS011;34429;52.332;5.614;2022-08-01T14:26:05;1.85;;;0.80;;
48635;SDS011;34429;52.332;5.614;2022-08-01T14:28:34;2.97;;;1.00;;
48635;SDS011;34429;52.332;5.614;2022-08-01T14:31:02;2.47;;;1.17;;
48635;SDS011;34429;52.332;5.614;2022-08-01T14:33:31;3.03;;;0.93;;
48635;SDS011;34429;52.332;5.614;2022-08-01T14:35:59;5.20;;;1.02;;
48635;SDS011;34429;52.332;5.614;2022-08-01T14:38:28;3.40;;;1.02;;
48635;SDS011;34429;52.332;5.614;2022-08-01T14:40:56;4.20;;;1.10;;
48635;SDS011;34429;52.332;5.614;2022-08-01T14:43:28;4.40;;;1.10;;
48635;SDS011;34429;52.332;5.614;2022-08-01T14:45:56;1.48;;;0.90;;
48635;SDS011;34429;52.332;5.614;2022-08-01T14:48:25;2.40;;;0.80;;
48635;SDS011;34429;52.332;5.614;2022-08-01T14:50:53;3.35;;;1.10;;
48635;SDS011;34429;52.332;5.614;2022-08-01T14:53:21;5.22;;;1.05;;
48635;SDS011;34429;52.332;5.614;2022-08-01T14:55:49;4.00;;;1.20;;
48635;SDS011;34429;52.332;5.614;2022-08-01T14:58:18;3.22;;;0.88;;
48635;SDS011;34429;52.332;5.614;2022-08-01T15:00:49;2.03;;;1.35;;
48635;SDS011;34429;52.332;5.614;2022-08-01T15:03:19;2.50;;;1.00;;
48635;SDS011;34429;52.332;5.614;2022-08-01T15:05:47;7.18;;;0.95;;
48635;SDS011;34429;52.332;5.614;2022-08-01T15:08:16;2.00;;;0.90;;
48635;SDS011;34429;52.332;5.614;2022-08-01T15:10:44;2.08;;;0.90;;
48635;SDS011;34429;52.332;5.614;2022-08-01T15:13:12;2.90;;;1.00;;
48635;SDS011;34429;52.332;5.614;2022-08-01T15:15:40;3.25;;;0.73;;
48635;SDS011;34429;52.332;5.614;2022-08-01T15:18:11;1.13;;;0.70;;
48635;SDS011;34429;52.332;5.614;2022-08-01T15:20:41;3.13;;;0.90;;
48635;SDS011;34429;52.332;5.614;2022-08-01T15:23:10;1.58;;;0.80;;
48635;SDS011;34429;52.332;5.614;2022-08-01T15:25:38;3.50;;;0.68;;
48635;SDS011;34429;52.332;5.614;2022-08-01T15:28:07;2.95;;;0.98;;